DAFH

Hassi R'Mel Airport

Algeria
METAR DAFH 161800Z 01012KT 9999 BKN030 11/07 Q1017
Observed Flight Rules
Dec-16 @ 18:00 UTC (12 hours ago) Marginal Visual Flight Rules
Wind Visibility Clouds
10° at 12 knots 10,000+ meters
  • Broken at 3,000' AGL
Temperatures Readings
Current 11°C / 52°F
Dewpoint 7°C / 45°F
Humidity 77%
Altimeter 30.03" Hg
Pressure 1017 hPa
Elevation 774
METAR DAFH 161800Z 01012KT 9999 BKN030 11/07 Q1017
Observed Flight Rules
Dec-16 @ 18:00 UTC
(12 hours ago)
MVFR
Wind Visibility
10° at 12 knots 10,000+ meters
Clouds
  • Broken at 3,000' AGL
Temperature Dewpoint
11°C / 52°F 7°C / 45°F
Humidity Altimeter Pressure
77% 30.03" Hg 1017 hPa